Time;durP1;ratioP1;P1;durP2;ratioP2;P2;SDS_P1;SDS_P2;PMS_P1;PMS_P2;Temp;Humidity;BMP_temperature;BMP_pressure;BME280_temperature;BME280_humidity;BME280_pressure;Samples;Min_cycle;Max_cycle;Signal;HPM_P1;HPM_P2
2021/01/27 00:02:07;;;;;;;;;;;15.80;64.50;;;;;;4196209;28;19924;-41
2021/01/27 00:04:28;;;;;;;;;;;15.80;64.50;;;;;;4196506;28;20027;-42
2021/01/27 00:06:48;;;;;;;;;;;15.80;64.70;;;;;;4196092;28;19931;-41
2021/01/27 00:09:10;;;;;;;;;;;15.70;64.90;;;;;;4195421;28;19931;-41
2021/01/27 00:11:31;;;;;;;;;;;15.70;65.20;;;;;;4179709;28;19970;-42
2021/01/27 00:13:52;;;;;;;;;;;15.60;65.30;;;;;;4181217;28;19921;-42
2021/01/27 00:16:13;;;;;;;;;;;15.70;65.20;;;;;;4196163;28;19932;-41
2021/01/27 00:18:34;;;;;;;;;;;15.70;65.10;;;;;;4196239;28;19928;-41
2021/01/27 00:20:54;;;;;;;;;;;15.60;65.10;;;;;;4196131;28;20302;-41
2021/01/27 00:23:15;;;;;;;;;;;15.60;65.10;;;;;;4196317;28;20393;-41
2021/01/27 00:25:38;;;;;;;;;;;15.70;65.10;;;;;;4195920;28;20392;-41
2021/01/27 00:27:59;;;;;;;;;;;15.70;64.80;;;;;;4196013;28;19932;-41
2021/01/27 00:30:21;;;;;;;;;;;15.70;64.70;;;;;;4195334;28;19947;-41
2021/01/27 00:32:42;;;;;;;;;;;15.70;64.90;;;;;;4196264;28;19939;-41
2021/01/27 00:35:03;;;;;;;;;;;15.80;64.80;;;;;;4195679;28;20018;-41
2021/01/27 00:37:24;;;;;;;;;;;15.90;64.00;;;;;;4196038;28;20310;-43
2021/01/27 00:39:46;;;;;;;;;;;16.10;63.30;;;;;;4196236;28;19924;-42
2021/01/27 00:42:08;;;;;;;;;;;16.20;62.80;;;;;;4195709;28;19931;-41
2021/01/27 00:44:29;;;;;;;;;;;16.30;62.60;;;;;;4195026;28;19952;-42
2021/01/27 00:46:52;;;;;;;;;;;16.20;62.60;;;;;;4195863;28;19960;-41
2021/01/27 00:49:13;;;;;;;;;;;16.20;62.70;;;;;;4195660;28;20382;-41
2021/01/27 00:51:34;;;;;;;;;;;16.20;62.80;;;;;;4195102;28;19931;-41
2021/01/27 00:53:54;;;;;;;;;;;16.10;62.90;;;;;;4196180;28;19931;-41
2021/01/27 00:56:18;;;;;;;;;;;16.10;63.10;;;;;;4198184;28;19924;-41
2021/01/27 00:58:40;;;;;;;;;;;16.00;63.30;;;;;;4197671;28;19978;-41
2021/01/27 01:01:14;;;;;;;;;;;15.90;63.60;;;;;;4199109;28;20011;-47
2021/01/27 01:03:35;;;;;;;;;;;15.90;63.80;;;;;;4197708;28;19935;-41
2021/01/27 01:05:56;;;;;;;;;;;16.00;63.50;;;;;;4198547;28;19924;-42
2021/01/27 01:08:17;;;;;;;;;;;16.10;63.00;;;;;;4199285;28;20034;-41
2021/01/27 01:10:39;;;;;;;;;;;16.20;62.80;;;;;;4198784;28;19924;-41
2021/01/27 01:13:01;;;;;;;;;;;16.20;62.70;;;;;;4198815;28;20001;-41
2021/01/27 01:15:23;;;;;;;;;;;16.10;62.70;;;;;;4198900;28;19924;-41
2021/01/27 01:17:44;;;;;;;;;;;16.20;62.60;;;;;;4198790;28;19928;-41
2021/01/27 01:20:06;;;;;;;;;;;16.30;62.40;;;;;;4198822;28;19924;-41
2021/01/27 01:22:27;;;;;;;;;;;16.40;62.00;;;;;;4198407;28;19924;-41
2021/01/27 01:24:47;;;;;;;;;;;16.60;61.40;;;;;;4198694;28;19924;-41
2021/01/27 01:27:08;;;;;;;;;;;16.80;60.50;;;;;;4198419;28;20393;-43
2021/01/27 01:29:29;;;;;;;;;;;16.90;61.10;;;;;;4198419;28;20015;-41
2021/01/27 01:31:51;;;;;;;;;;;16.80;60.10;;;;;;4198378;28;19929;-41
2021/01/27 01:34:12;;;;;;;;;;;16.80;60.30;;;;;;4198454;28;19951;-41
2021/01/27 01:36:32;;;;;;;;;;;16.70;60.40;;;;;;4197414;28;20346;-41
2021/01/27 01:38:53;;;;;;;;;;;16.60;60.80;;;;;;4198447;28;19932;-41
2021/01/27 01:41:14;;;;;;;;;;;16.50;61.20;;;;;;4198676;28;19928;-42
2021/01/27 01:43:35;;;;;;;;;;;16.40;61.60;;;;;;4198062;28;19928;-41
2021/01/27 01:45:56;;;;;;;;;;;16.30;62.00;;;;;;4196995;28;19932;-41
2021/01/27 01:48:21;;;;;;;;;;;16.30;62.00;;;;;;4198643;28;19935;-41
2021/01/27 01:50:42;;;;;;;;;;;16.40;61.80;;;;;;4198263;28;20444;-41
2021/01/27 01:53:03;;;;;;;;;;;16.40;61.70;;;;;;4198129;28;20333;-42
2021/01/27 01:55:24;;;;;;;;;;;16.40;61.60;;;;;;4198323;28;20413;-41
2021/01/27 01:57:46;;;;;;;;;;;16.40;61.70;;;;;;4198453;28;20415;-41
2021/01/27 02:00:08;;;;;;;;;;;16.40;61.80;;;;;;4197120;28;19930;-41
2021/01/27 02:02:34;;;;;;;;;;;16.40;61.60;;;;;;4198047;28;19924;-41
2021/01/27 02:04:59;;;;;;;;;;;16.40;61.50;;;;;;4196348;28;19924;-41
2021/01/27 02:07:20;;;;;;;;;;;16.30;61.50;;;;;;4198130;28;19924;-41
2021/01/27 02:09:41;;;;;;;;;;;16.30;61.80;;;;;;4198076;28;19924;-41
2021/01/27 02:12:11;;;;;;;;;;;16.30;61.90;;;;;;4198050;28;19924;-41
2021/01/27 02:14:43;;;;;;;;;;;16.40;61.80;;;;;;4197913;28;19924;-41
2021/01/27 02:17:06;;;;;;;;;;;16.60;60.90;;;;;;4198028;28;19932;-41
2021/01/27 02:19:45;;;;;;;;;;;16.80;60.00;;;;;;4197814;28;19978;-41
2021/01/27 02:22:20;;;;;;;;;;;17.00;59.60;;;;;;4167600;28;19920;-41
2021/01/27 02:24:57;;;;;;;;;;;17.00;59.50;;;;;;4197396;28;19924;-41
2021/01/27 02:27:22;;;;;;;;;;;16.90;59.50;;;;;;4197786;28;20243;-41
2021/01/27 02:29:54;;;;;;;;;;;16.80;59.80;;;;;;4197720;28;20360;-41
2021/01/27 02:32:33;;;;;;;;;;;16.70;60.10;;;;;;4197448;28;19974;-40
2021/01/27 02:35:01;;;;;;;;;;;16.60;60.50;;;;;;4197212;28;19924;-41
2021/01/27 02:37:25;;;;;;;;;;;16.60;60.70;;;;;;4197269;28;19985;-41
2021/01/27 02:39:49;;;;;;;;;;;16.60;60.40;;;;;;4197192;28;19931;-41
2021/01/27 02:42:12;;;;;;;;;;;16.70;60.10;;;;;;4197524;28;20461;-41
2021/01/27 02:44:41;;;;;;;;;;;16.70;60.10;;;;;;4197160;28;19924;-41
2021/01/27 02:47:03;;;;;;;;;;;16.70;60.20;;;;;;4197408;28;19924;-41
2021/01/27 02:49:27;;;;;;;;;;;16.60;60.30;;;;;;4197422;28;19924;-41
2021/01/27 02:51:52;;;;;;;;;;;16.70;60.10;;;;;;4197254;28;19928;-41
2021/01/27 02:54:17;;;;;;;;;;;16.70;60.00;;;;;;4197175;28;20017;-40
2021/01/27 02:56:42;;;;;;;;;;;16.70;60.00;;;;;;4197223;28;19927;-41
2021/01/27 02:59:04;;;;;;;;;;;16.70;60.10;;;;;;4197071;28;20007;-41
2021/01/27 03:01:28;;;;;;;;;;;16.70;60.30;;;;;;4197029;28;19931;-42
2021/01/27 03:03:52;;;;;;;;;;;16.80;59.90;;;;;;4197027;28;19924;-41
2021/01/27 03:06:15;;;;;;;;;;;17.00;59.30;;;;;;4189810;28;19942;-41
2021/01/27 03:08:38;;;;;;;;;;;17.10;58.90;;;;;;4196961;28;20030;-41
2021/01/27 03:11:05;;;;;;;;;;;17.10;58.80;;;;;;4196849;28;19972;-41
2021/01/27 03:13:26;;;;;;;;;;;17.10;58.90;;;;;;4196867;28;20016;-41
2021/01/27 03:15:47;;;;;;;;;;;17.10;58.90;;;;;;4196877;28;20438;-41
2021/01/27 03:18:09;;;;;;;;;;;17.20;58.80;;;;;;4196785;28;19925;-41
2021/01/27 03:20:32;;;;;;;;;;;17.10;58.80;;;;;;4197077;28;19973;-41
2021/01/27 03:22:56;;;;;;;;;;;17.00;59.00;;;;;;4196893;28;19960;-41
2021/01/27 03:25:22;;;;;;;;;;;16.90;59.20;;;;;;4196177;28;20015;-41
2021/01/27 03:27:49;;;;;;;;;;;16.80;59.50;;;;;;4196789;28;19930;-41
2021/01/27 03:30:11;;;;;;;;;;;16.60;60.70;;;;;;4196788;28;20448;-42
2021/01/27 03:32:37;;;;;;;;;;;16.60;59.90;;;;;;4196319;28;20015;-41
2021/01/27 03:35:03;;;;;;;;;;;16.60;59.90;;;;;;4196733;28;20568;-42
2021/01/27 03:37:28;;;;;;;;;;;16.60;60.10;;;;;;4196310;28;20018;-44
2021/01/27 03:39:52;;;;;;;;;;;16.50;60.40;;;;;;4196676;28;19998;-41
2021/01/27 03:42:17;;;;;;;;;;;16.50;60.60;;;;;;4196480;28;19943;-41
2021/01/27 03:44:43;;;;;;;;;;;16.50;60.40;;;;;;4196663;28;19920;-43
2021/01/27 03:47:08;;;;;;;;;;;16.50;60.30;;;;;;4196527;28;19947;-41
2021/01/27 03:49:33;;;;;;;;;;;16.50;60.40;;;;;;4195206;28;19924;-41
2021/01/27 03:51:57;;;;;;;;;;;16.40;60.60;;;;;;4196503;28;20019;-41
2021/01/27 03:54:19;;;;;;;;;;;16.50;60.70;;;;;;4196473;28;19928;-43
2021/01/27 03:56:42;;;;;;;;;;;16.60;60.20;;;;;;4196389;28;19924;-41
2021/01/27 03:59:04;;;;;;;;;;;16.70;59.70;;;;;;4196200;28;19977;-42
2021/01/27 04:01:24;;;;;;;;;;;16.90;59.40;;;;;;4196545;28;19947;-42
2021/01/27 04:03:45;;;;;;;;;;;16.90;59.10;;;;;;4196033;28;19920;-41
2021/01/27 04:06:07;;;;;;;;;;;16.90;59.00;;;;;;4196224;28;20409;-41
2021/01/27 04:08:27;;;;;;;;;;;16.90;59.20;;;;;;4196175;28;19959;-45
2021/01/27 04:10:48;;;;;;;;;;;16.80;59.30;;;;;;4196068;28;19947;-41
2021/01/27 04:13:09;;;;;;;;;;;16.70;59.50;;;;;;4196012;28;19920;-44
2021/01/27 04:15:31;;;;;;;;;;;16.60;59.90;;;;;;4196249;28;20629;-41
2021/01/27 04:17:52;;;;;;;;;;;16.50;60.30;;;;;;4196231;28;20037;-41
2021/01/27 04:20:13;;;;;;;;;;;16.40;60.40;;;;;;4196325;28;19920;-42
2021/01/27 04:22:33;;;;;;;;;;;16.50;60.50;;;;;;4195989;28;20014;-42
2021/01/27 04:24:54;;;;;;;;;;;16.50;60.30;;;;;;4196399;28;19921;-41
2021/01/27 04:27:18;;;;;;;;;;;16.50;60.40;;;;;;4195710;28;20687;-42
2021/01/27 04:29:38;;;;;;;;;;;16.40;60.50;;;;;;4195738;28;19931;-41
2021/01/27 04:32:00;;;;;;;;;;;16.40;60.70;;;;;;4196184;28;20024;-41
2021/01/27 04:34:21;;;;;;;;;;;16.20;60.80;;;;;;4195931;28;19924;-41
2021/01/27 04:36:43;;;;;;;;;;;16.20;61.20;;;;;;4196056;28;20020;-41
2021/01/27 04:39:04;;;;;;;;;;;16.10;61.50;;;;;;4195724;28;19921;-41
2021/01/27 04:41:25;;;;;;;;;;;16.10;61.40;;;;;;4196176;28;20370;-41
2021/01/27 04:43:47;;;;;;;;;;;16.20;61.20;;;;;;4195441;28;19977;-42
2021/01/27 04:46:09;;;;;;;;;;;16.30;60.90;;;;;;4179200;28;19924;-41
2021/01/27 04:48:38;;;;;;;;;;;16.50;60.40;;;;;;4179362;28;19920;-45
2021/01/27 04:51:00;;;;;;;;;;;16.70;59.60;;;;;;4191585;28;19970;-41
2021/01/27 04:53:28;;;;;;;;;;;16.90;58.80;;;;;;4195866;28;19928;-42
2021/01/27 04:56:10;;;;;;;;;;;17.00;58.50;;;;;;4195595;28;19995;-41
2021/01/27 04:58:36;;;;;;;;;;;17.00;58.50;;;;;;4195784;28;19928;-41
2021/01/27 05:01:09;;;;;;;;;;;16.90;58.60;;;;;;4195942;28;19920;-42
2021/01/27 05:03:54;;;;;;;;;;;16.90;58.80;;;;;;4194092;28;19920;-43
2021/01/27 05:06:21;;;;;;;;;;;16.70;59.00;;;;;;4186952;28;20487;-41
2021/01/27 05:08:44;;;;;;;;;;;16.60;59.40;;;;;;4195830;28;20664;-41
2021/01/27 05:11:07;;;;;;;;;;;16.60;59.50;;;;;;4194261;28;19929;-42
2021/01/27 05:13:30;;;;;;;;;;;16.70;59.30;;;;;;4195657;28;19969;-41
2021/01/27 05:15:51;;;;;;;;;;;16.80;59.10;;;;;;4195769;28;20371;-41
2021/01/27 05:18:14;;;;;;;;;;;16.80;59.00;;;;;;4195575;28;20014;-42
2021/01/27 05:20:36;;;;;;;;;;;16.80;58.90;;;;;;4195656;28;19967;-41
2021/01/27 05:23:00;;;;;;;;;;;16.90;58.70;;;;;;4195530;28;19927;-41
2021/01/27 05:25:29;;;;;;;;;;;16.90;58.50;;;;;;4195507;28;19953;-41
2021/01/27 05:27:51;;;;;;;;;;;16.90;58.60;;;;;;4195581;28;19924;-41
2021/01/27 05:30:17;;;;;;;;;;;16.80;58.80;;;;;;4180416;28;20035;-41
2021/01/27 05:32:48;;;;;;;;;;;16.70;59.00;;;;;;4195483;28;19924;-41
2021/01/27 05:35:22;;;;;;;;;;;16.60;59.20;;;;;;4195927;28;20026;-42
2021/01/27 05:37:43;;;;;;;;;;;16.70;59.20;;;;;;4195162;28;19932;-42
2021/01/27 05:40:07;;;;;;;;;;;16.70;59.00;;;;;;4197087;28;20280;-42
2021/01/27 05:42:31;;;;;;;;;;;16.90;58.80;;;;;;4197969;28;19931;-41
2021/01/27 05:44:53;;;;;;;;;;;17.00;58.30;;;;;;4198669;28;19933;-42
2021/01/27 05:47:34;;;;;;;;;;;17.10;58.00;;;;;;4198477;28;19925;-42
2021/01/27 05:49:55;;;;;;;;;;;17.00;58.00;;;;;;4198176;28;19935;-44
2021/01/27 05:52:19;;;;;;;;;;;17.00;58.20;;;;;;4198237;28;20005;-43
2021/01/27 05:54:40;;;;;;;;;;;17.00;58.30;;;;;;4198574;28;19920;-42
2021/01/27 05:57:02;;;;;;;;;;;16.90;58.40;;;;;;4198103;28;19924;-43
2021/01/27 05:59:23;;;;;;;;;;;16.90;58.40;;;;;;4198361;28;20378;-42
2021/01/27 06:01:46;;;;;;;;;;;16.80;58.70;;;;;;4198081;28;19926;-43
2021/01/27 06:04:18;;;;;;;;;;;16.70;58.90;;;;;;4196495;28;19924;-41
2021/01/27 06:06:42;;;;;;;;;;;16.70;58.90;;;;;;4198336;28;20022;-42
2021/01/27 06:09:04;;;;;;;;;;;16.70;59.00;;;;;;4197705;28;19931;-44
2021/01/27 06:11:26;;;;;;;;;;;16.60;59.20;;;;;;4198398;28;20021;-44
2021/01/27 06:13:49;;;;;;;;;;;16.60;59.40;;;;;;4197812;28;20025;-43
2021/01/27 06:16:16;;;;;;;;;;;16.60;59.30;;;;;;4198149;28;19935;-43
2021/01/27 06:18:38;;;;;;;;;;;16.70;59.00;;;;;;4197860;28;19920;-44
2021/01/27 06:21:13;;;;;;;;;;;16.90;58.70;;;;;;4197591;28;19924;-42
2021/01/27 06:23:51;;;;;;;;;;;16.90;58.50;;;;;;4211182;28;20406;-43
2021/01/27 06:26:24;;;;;;;;;;;16.90;58.50;;;;;;4197542;28;19920;-42
2021/01/27 06:28:54;;;;;;;;;;;16.90;58.50;;;;;;4197418;28;19930;-41
2021/01/27 06:31:18;;;;;;;;;;;16.80;58.60;;;;;;4198043;28;19924;-43
2021/01/27 06:34:02;;;;;;;;;;;16.70;58.80;;;;;;4197580;28;19924;-44
2021/01/27 06:36:37;;;;;;;;;;;16.70;59.00;;;;;;4197908;28;20393;-42
2021/01/27 06:39:08;;;;;;;;;;;16.80;59.30;;;;;;4197265;28;20297;-42
2021/01/27 06:41:43;;;;;;;;;;;17.00;58.50;;;;;;4197132;28;19924;-47
2021/01/27 06:44:15;;;;;;;;;;;17.00;58.10;;;;;;4197605;28;19959;-42
2021/01/27 06:46:50;;;;;;;;;;;17.00;58.00;;;;;;4197510;28;20701;-44
2021/01/27 06:49:17;;;;;;;;;;;17.00;58.20;;;;;;4197377;28;20301;-43
2021/01/27 06:52:08;;;;;;;;;;;17.00;58.20;;;;;;4196622;28;19928;-41
2021/01/27 06:54:35;;;;;;;;;;;17.00;58.20;;;;;;4145729;28;19921;-44
2021/01/27 06:56:58;;;;;;;;;;;16.90;58.30;;;;;;4190926;28;19927;-42
2021/01/27 06:59:45;;;;;;;;;;;16.90;58.30;;;;;;4180909;28;19924;-42
2021/01/27 07:02:33;;;;;;;;;;;17.00;58.20;;;;;;4194381;28;19921;-42
2021/01/27 07:05:13;;;;;;;;;;;16.90;58.20;;;;;;4169824;28;19924;-42
2021/01/27 07:07:49;;;;;;;;;;;16.90;58.40;;;;;;4197026;28;19978;-45
2021/01/27 07:10:28;;;;;;;;;;;16.90;58.80;;;;;;4196888;28;19947;-45
2021/01/27 07:12:52;;;;;;;;;;;16.90;59.00;;;;;;4196834;28;19924;-46
2021/01/27 07:15:19;;;;;;;;;;;16.80;58.90;;;;;;4196948;28;20383;-42
2021/01/27 07:17:50;;;;;;;;;;;16.80;58.90;;;;;;4197183;28;20370;-43
2021/01/27 07:20:23;;;;;;;;;;;16.80;58.80;;;;;;4196841;28;19931;-42
2021/01/27 07:22:48;;;;;;;;;;;16.70;58.80;;;;;;4196510;28;19924;-42
2021/01/27 07:25:11;;;;;;;;;;;16.80;58.50;;;;;;4192282;28;20018;-44
2021/01/27 07:27:33;;;;;;;;;;;17.00;58.00;;;;;;4194330;28;19924;-41
2021/01/27 07:29:57;;;;;;;;;;;17.10;57.70;;;;;;4196920;28;19981;-42
2021/01/27 07:32:23;;;;;;;;;;;17.10;57.50;;;;;;4196194;28;19920;-42
2021/01/27 07:34:47;;;;;;;;;;;17.00;57.60;;;;;;4196449;28;19928;-41
2021/01/27 07:37:12;;;;;;;;;;;16.90;57.80;;;;;;4197052;28;19927;-41
2021/01/27 07:39:40;;;;;;;;;;;16.80;58.10;;;;;;4196175;28;20023;-41
2021/01/27 07:42:10;;;;;;;;;;;16.70;58.60;;;;;;4196019;28;20350;-41
2021/01/27 07:44:32;;;;;;;;;;;16.60;58.80;;;;;;4182777;28;19961;-41
2021/01/27 07:46:59;;;;;;;;;;;16.60;58.80;;;;;;4196333;28;19931;-42
2021/01/27 07:49:27;;;;;;;;;;;16.50;59.10;;;;;;4196097;28;19928;-44
2021/01/27 07:51:51;;;;;;;;;;;16.40;59.30;;;;;;4196567;28;19928;-42
2021/01/27 07:54:16;;;;;;;;;;;16.30;59.50;;;;;;4179975;28;20461;-41
2021/01/27 07:56:39;;;;;;;;;;;16.20;59.90;;;;;;4179570;28;20318;-41
2021/01/27 07:59:05;;;;;;;;;;;16.10;60.30;;;;;;4189823;28;19924;-42
2021/01/27 08:01:30;;;;;;;;;;;16.10;60.30;;;;;;4196501;28;19935;-43
2021/01/27 08:03:56;;;;;;;;;;;16.00;60.40;;;;;;4186338;28;19961;-41
2021/01/27 08:06:20;;;;;;;;;;;16.00;60.70;;;;;;4195937;28;20404;-41
2021/01/27 08:08:43;;;;;;;;;;;15.90;61.00;;;;;;4195996;28;20023;-40
2021/01/27 08:11:11;;;;;;;;;;;15.80;61.20;;;;;;4196481;28;19924;-41
2021/01/27 08:13:36;;;;;;;;;;;15.80;61.40;;;;;;4195487;28;19924;-42
2021/01/27 08:16:01;;;;;;;;;;;15.90;61.00;;;;;;4196009;28;20441;-41
2021/01/27 08:18:22;;;;;;;;;;;16.00;60.80;;;;;;4195989;28;19960;-40
2021/01/27 08:20:44;;;;;;;;;;;16.00;60.60;;;;;;4196171;28;20035;-40
2021/01/27 08:23:09;;;;;;;;;;;16.00;60.60;;;;;;4195687;28;19967;-40
2021/01/27 08:25:50;;;;;;;;;;;16.10;60.60;;;;;;4195968;28;20603;-41
2021/01/27 08:28:18;;;;;;;;;;;16.10;60.60;;;;;;4195876;28;19932;-40
2021/01/27 08:30:39;;;;;;;;;;;16.10;60.60;;;;;;4195531;28;20289;-43
2021/01/27 08:33:29;;;;;;;;;;;16.00;60.70;;;;;;4195169;28;19925;-39
2021/01/27 08:36:04;;;;;;;;;;;16.10;60.70;;;;;;4196006;28;19997;-43
2021/01/27 08:38:27;;;;;;;;;;;16.10;60.40;;;;;;4196375;28;19924;-42
2021/01/27 08:40:49;;;;;;;;;;;16.10;60.40;;;;;;4195569;28;19924;-44
2021/01/27 08:43:13;;;;;;;;;;;16.00;60.50;;;;;;4195516;28;19924;-42
2021/01/27 08:45:34;;;;;;;;;;;15.90;60.70;;;;;;4194615;28;19924;-43
2021/01/27 08:47:55;;;;;;;;;;;15.90;61.00;;;;;;4195862;28;19924;-44
2021/01/27 08:50:31;;;;;;;;;;;15.80;61.00;;;;;;4195341;28;19924;-42
2021/01/27 08:52:52;;;;;;;;;;;15.70;61.30;;;;;;4195687;28;19928;-42
2021/01/27 08:55:31;;;;;;;;;;;15.60;61.60;;;;;;4193899;28;19936;-41
2021/01/27 08:59:28;;;;;;;0.40;0.40;;;15.50;61.20;;;;;;4226796;27;20396;-40
2021/01/27 09:01:53;;;;;;;0.00;0.00;;;15.60;62.20;;;;;;4226994;28;20052;-40
2021/01/27 09:04:34;;;;;;;0.00;0.00;;;15.60;62.20;;;;;;4226809;28;20056;-40
2021/01/27 09:07:05;;;;;;;0.28;0.28;;;15.60;62.20;;;;;;4226745;28;20177;-40
2021/01/27 09:09:30;;;;;;;0.75;0.40;;;15.80;61.90;;;;;;4226459;28;20105;-40
2021/01/27 09:11:58;;;;;;;0.40;0.35;;;15.80;61.60;;;;;;4226092;28;20651;-41
2021/01/27 09:14:19;;;;;;;0.10;0.10;;;15.90;61.50;;;;;;4226499;28;20482;-41
2021/01/27 09:16:42;;;;;;;1.08;1.08;;;15.90;61.50;;;;;;4226372;28;20051;-40
2021/01/27 09:19:08;;;;;;;0.08;0.08;;;15.90;61.60;;;;;;4226944;28;20060;-41
2021/01/27 09:21:32;;;;;;;0.38;0.38;;;15.80;61.60;;;;;;4226745;28;20101;-40
2021/01/27 09:23:58;;;;;;;0.20;0.20;;;15.80;61.90;;;;;;4226229;28;20498;-43
2021/01/27 09:26:21;;;;;;;2.20;0.55;;;15.70;62.10;;;;;;4226573;28;20056;-40
2021/01/27 09:28:47;;;;;;;0.65;0.65;;;15.70;62.50;;;;;;4225507;28;20756;-40
2021/01/27 09:31:13;;;;;;;0.63;0.63;;;15.70;62.60;;;;;;4226519;28;20062;-40
2021/01/27 09:33:35;;;;;;;0.82;0.82;;;15.80;62.30;;;;;;4226476;28;20101;-40
2021/01/27 09:36:07;;;;;;;0.57;0.57;;;15.80;62.10;;;;;;4226397;28;20074;-40
2021/01/27 09:38:28;;;;;;;0.28;0.28;;;15.80;62.00;;;;;;4226508;28;20140;-40
2021/01/27 09:40:53;;;;;;;0.63;0.63;;;15.80;62.10;;;;;;4226602;28;20052;-40
2021/01/27 09:43:17;;;;;;;2.15;2.10;;;15.70;62.30;;;;;;4225873;28;20048;-40
2021/01/27 09:45:41;;;;;;;2.35;1.58;;;15.70;62.60;;;;;;4222624;28;20047;-40
2021/01/27 09:48:05;;;;;;;0.00;0.00;;;15.60;62.70;;;;;;4223136;28;20048;-40
2021/01/27 09:50:27;;;;;;;0.30;0.30;;;15.60;62.70;;;;;;4225929;28;20101;-39
2021/01/27 09:52:53;;;;;;;1.38;1.38;;;15.60;62.90;;;;;;4226031;28;20417;-40
2021/01/27 09:55:15;;;;;;;3.10;2.40;;;15.50;63.10;;;;;;4212766;28;20044;-40
2021/01/27 09:57:38;;;;;;;0.52;0.52;;;15.70;62.90;;;;;;4225579;28;20067;-41
2021/01/27 10:00:00;;;;;;;0.08;0.08;;;15.90;61.90;;;;;;4225275;28;20051;-40
2021/01/27 10:02:33;;;;;;;0.20;0.20;;;16.10;61.40;;;;;;4225036;28;20082;-40
2021/01/27 10:04:54;;;;;;;0.88;0.88;;;16.20;61.20;;;;;;4222664;28;20040;-42
2021/01/27 10:07:22;;;;;;;0.00;0.00;;;16.20;61.10;;;;;;4225724;28;20573;-56
2021/01/27 10:09:49;;;;;;;0.00;0.00;;;16.10;61.20;;;;;;4215624;28;20059;-51
2021/01/27 10:12:17;;;;;;;0.98;0.98;;;16.10;61.20;;;;;;4214442;28;20055;-51
2021/01/27 10:14:41;;;;;;;0.50;0.50;;;16.10;61.60;;;;;;4214563;28;20060;-41
2021/01/27 10:17:05;;;;;;;0.60;0.60;;;16.20;61.20;;;;;;4214087;28;20048;-40
2021/01/27 10:19:29;;;;;;;0.10;0.10;;;16.40;60.70;;;;;;4214394;28;20058;-41
2021/01/27 10:21:51;;;;;;;0.68;0.68;;;16.40;60.20;;;;;;4214640;28;20056;-40
2021/01/27 10:24:33;;;;;;;0.17;0.17;;;16.50;60.20;;;;;;4213247;28;20128;-41
2021/01/27 10:27:03;;;;;;;0.00;0.00;;;16.40;60.30;;;;;;4213986;28;20502;-41
2021/01/27 10:29:31;;;;;;;0.10;0.10;;;16.30;60.50;;;;;;4214014;28;20499;-42
2021/01/27 10:31:54;;;;;;;0.20;0.20;;;16.30;60.90;;;;;;4213830;28;20062;-41
2021/01/27 10:34:34;;;;;;;1.75;1.63;;;16.10;61.20;;;;;;4213740;28;20051;-41
2021/01/27 10:36:56;;;;;;;0.10;0.10;;;16.00;61.70;;;;;;4214547;28;20051;-41
2021/01/27 10:39:25;;;;;;;0.00;0.00;;;15.90;62.10;;;;;;4214441;28;20058;-40
2021/01/27 10:41:48;;;;;;;1.92;1.83;;;15.80;62.50;;;;;;4214064;28;20051;-41
2021/01/27 10:44:28;;;;;;;2.20;0.90;;;15.70;62.90;;;;;;4213757;28;20097;-40
2021/01/27 10:46:50;;;;;;;0.55;0.55;;;15.60;63.30;;;;;;4213992;28;20052;-40
2021/01/27 10:49:11;;;;;;;1.88;1.10;;;15.50;63.60;;;;;;4214355;28;20066;-40
2021/01/27 10:51:32;;;;;;;0.38;0.38;;;15.40;63.90;;;;;;4213672;28;20071;-40
2021/01/27 10:53:54;;;;;;;;;;;15.30;64.70;;;;;;4214287;28;20048;-41
2021/01/27 10:56:18;;;;;;;0.55;0.55;;;15.30;64.60;;;;;;4214113;28;20370;-40
2021/01/27 10:58:39;;;;;;;0.00;0.00;;;15.20;64.90;;;;;;4213586;28;20105;-47
2021/01/27 11:01:01;;;;;;;1.45;1.23;;;15.20;65.20;;;;;;4213696;28;20048;-40
2021/01/27 11:03:22;;;;;;;3.13;0.95;;;15.30;65.00;;;;;;4207442;28;20060;-40
2021/01/27 11:05:43;;;;;;;0.65;0.65;;;15.40;64.40;;;;;;4213347;28;20036;-40
2021/01/27 11:08:06;;;;;;;0.10;0.10;;;15.50;64.80;;;;;;4213206;28;20048;-41
2021/01/27 11:10:27;;;;;;;1.40;1.30;;;15.60;63.60;;;;;;4213180;28;20040;-42
2021/01/27 11:12:49;;;;;;;0.35;0.35;;;15.60;63.40;;;;;;4210263;28;20105;-41
2021/01/27 11:15:11;;;;;;;0.00;0.00;;;15.60;63.50;;;;;;4214614;28;20070;-42
2021/01/27 11:17:32;;;;;;;0.22;0.22;;;15.50;63.60;;;;;;4213637;28;20052;-41
2021/01/27 11:19:53;;;;;;;0.00;0.00;;;15.50;63.80;;;;;;4213887;28;20097;-41
2021/01/27 11:22:15;;;;;;;0.00;0.00;;;15.40;64.10;;;;;;4213063;28;20422;-41
2021/01/27 11:24:36;;;;;;;0.10;0.10;;;15.40;64.10;;;;;;4213084;28;20136;-41
2021/01/27 11:26:57;;;;;;;1.45;1.45;;;15.50;64.00;;;;;;4212881;28;20482;-42
2021/01/27 11:29:19;;;;;;;1.17;1.08;;;15.50;63.90;;;;;;4213929;28;20078;-41
2021/01/27 11:31:40;;;;;;;0.85;0.85;;;15.50;63.80;;;;;;4213072;28;20102;-40
2021/01/27 11:34:02;;;;;;;0.20;0.20;;;15.50;63.90;;;;;;4196761;28;20048;-41
2021/01/27 11:36:24;;;;;;;0.00;0.00;;;15.40;64.10;;;;;;4196791;28;20558;-41
2021/01/27 11:38:45;;;;;;;0.00;0.00;;;15.40;64.30;;;;;;4197175;28;20418;-41
2021/01/27 11:41:06;;;;;;;0.30;0.30;;;15.30;64.70;;;;;;4211662;28;20134;-42
2021/01/27 11:43:28;;;;;;;0.00;0.00;;;15.20;64.90;;;;;;4212917;28;20058;-41
2021/01/27 11:45:49;;;;;;;0.13;0.13;;;15.20;65.20;;;;;;4212970;28;20429;-41
2021/01/27 11:48:30;;;;;;;0.00;0.00;;;15.20;65.50;;;;;;4212877;28;20059;-40
2021/01/27 11:50:51;;;;;;;0.00;0.00;;;15.20;65.30;;;;;;4212641;28;20052;-40
2021/01/27 11:53:12;;;;;;;0.00;0.00;;;15.20;65.00;;;;;;4212717;28;20039;-41
2021/01/27 11:55:33;;;;;;;0.00;0.00;;;15.30;64.80;;;;;;4195913;28;20045;-41
2021/01/27 11:57:55;;;;;;;0.22;0.22;;;15.30;64.80;;;;;;4211304;28;20060;-40
2021/01/27 12:00:19;;;;;;;0.00;0.00;;;15.30;64.70;;;;;;4213441;28;20048;-40
2021/01/27 12:02:41;;;;;;;0.00;0.00;;;15.30;64.80;;;;;;4212623;28;20123;-41
2021/01/27 12:05:04;;;;;;;0.00;0.00;;;15.30;64.90;;;;;;4213546;28;20048;-40
2021/01/27 12:07:25;;;;;;;0.63;0.57;;;15.20;65.00;;;;;;4212950;28;20759;-41
2021/01/27 12:09:46;;;;;;;0.10;0.10;;;15.20;65.30;;;;;;4212667;28;20769;-41
2021/01/27 12:12:11;;;;;;;0.10;0.10;;;15.20;65.30;;;;;;4211891;28;20059;-41
2021/01/27 12:14:33;;;;;;;0.00;0.00;;;15.20;65.30;;;;;;4212658;28;20051;-41
2021/01/27 12:16:54;;;;;;;0.10;0.10;;;15.20;65.30;;;;;;4212263;28;20134;-41
2021/01/27 12:19:21;;;;;;;0.03;0.03;;;15.30;65.00;;;;;;4211847;28;20087;-42
2021/01/27 12:21:43;;;;;;;1.95;1.08;;;15.30;64.90;;;;;;4195939;28;20131;-41
2021/01/27 12:24:04;;;;;;;0.00;0.00;;;15.40;64.60;;;;;;4195940;28;20055;-41
2021/01/27 12:26:26;;;;;;;0.00;0.00;;;15.60;64.20;;;;;;4207582;28;20047;-41
2021/01/27 12:28:46;;;;;;;0.00;0.00;;;15.80;63.50;;;;;;4212430;28;20500;-41
2021/01/27 12:31:09;;;;;;;0.00;0.00;;;15.90;63.00;;;;;;4212659;28;20048;-42
2021/01/27 12:33:30;;;;;;;0.05;0.05;;;15.90;62.80;;;;;;4211629;28;20139;-41
2021/01/27 12:35:52;;;;;;;0.00;0.00;;;15.90;62.90;;;;;;4211953;28;20074;-41
2021/01/27 12:38:13;;;;;;;0.38;0.38;;;15.80;63.00;;;;;;4212231;28;20055;-41
2021/01/27 12:40:35;;;;;;;0.00;0.00;;;15.80;63.10;;;;;;4212114;28;20071;-43
2021/01/27 12:42:56;;;;;;;;;;;15.90;62.80;;;;;;4212883;28;20124;-41
2021/01/27 12:45:24;;;;;;;0.00;0.00;;;16.00;62.50;;;;;;4212239;28;19985;-41
2021/01/27 12:47:45;;;;;;;0.00;0.00;;;16.00;62.40;;;;;;4211963;28;20055;-41
2021/01/27 12:50:09;;;;;;;0.17;0.17;;;15.90;62.40;;;;;;4211855;28;20146;-41
2021/01/27 12:52:32;;;;;;;0.30;0.30;;;15.90;62.70;;;;;;4212390;28;20056;-41
2021/01/27 12:54:53;;;;;;;0.00;0.00;;;15.80;62.90;;;;;;4212246;28;20501;-41
2021/01/27 12:57:14;;;;;;;0.00;0.00;;;15.80;63.10;;;;;;4211208;28;20486;-42
2021/01/27 12:59:35;;;;;;;0.00;0.00;;;15.80;63.20;;;;;;4212032;28;20052;-42
2021/01/27 13:01:56;;;;;;;0.28;0.28;;;15.70;63.10;;;;;;4212181;28;20135;-41
2021/01/27 13:04:17;;;;;;;0.00;0.00;;;15.80;63.20;;;;;;4212278;28;20055;-42
2021/01/27 13:06:38;;;;;;;0.00;0.00;;;15.90;62.90;;;;;;4212062;28;20051;-42
2021/01/27 13:09:00;;;;;;;0.00;0.00;;;16.00;62.40;;;;;;4211303;28;20478;-41
2021/01/27 13:11:21;;;;;;;0.35;0.35;;;16.10;62.10;;;;;;4203374;28;20052;-41
2021/01/27 13:13:43;;;;;;;0.10;0.10;;;16.30;61.70;;;;;;4211930;28;20047;-41
2021/01/27 13:16:04;;;;;;;0.28;0.28;;;16.40;61.00;;;;;;4212399;28;20055;-42
2021/01/27 13:18:26;;;;;;;0.10;0.10;;;16.50;60.60;;;;;;4211831;28;20075;-41
2021/01/27 13:20:47;;;;;;;9.70;0.60;;;16.50;60.50;;;;;;4211991;28;20052;-41
2021/01/27 13:23:08;;;;;;;0.43;0.43;;;16.40;60.70;;;;;;4212128;28;20502;-42
2021/01/27 13:25:30;;;;;;;0.10;0.10;;;16.40;60.90;;;;;;4211298;28;20070;-41
2021/01/27 13:27:56;;;;;;;0.00;0.00;;;16.30;61.30;;;;;;4211804;28;20150;-40
2021/01/27 13:30:19;;;;;;;2.63;1.00;;;16.20;61.40;;;;;;4211652;28;20052;-40
2021/01/27 13:32:40;;;;;;;0.00;0.00;;;16.10;61.80;;;;;;4212069;28;20048;-42